sensor_id;sensor_type;location;lat;lon;timestamp;pressure;altitude;pressure_sealevel;temperature;humidity
54248;BME280;40161;39.768;2.722;2023-04-15T00:01:20;100938.28;;;15.87;57.49
54248;BME280;40161;39.768;2.722;2023-04-15T00:03:47;100956.44;;;16.13;57.44
54248;BME280;40161;39.768;2.722;2023-04-15T00:06:12;100944.56;;;16.09;58.00
54248;BME280;40161;39.768;2.722;2023-04-15T00:08:38;100931.91;;;16.15;58.32
54248;BME280;40161;39.768;2.722;2023-04-15T00:11:04;100940.22;;;16.19;59.19
54248;BME280;40161;39.768;2.722;2023-04-15T00:13:32;100955.59;;;16.34;59.80
54248;BME280;40161;39.768;2.722;2023-04-15T00:15:59;100937.41;;;16.29;59.94
54248;BME280;40161;39.768;2.722;2023-04-15T00:18:25;100948.03;;;16.49;60.55
54248;BME280;40161;39.768;2.722;2023-04-15T00:20:50;100941.72;;;16.37;60.91
54248;BME280;40161;39.768;2.722;2023-04-15T00:23:17;100957.50;;;16.55;60.53
54248;BME280;40161;39.768;2.722;2023-04-15T00:25:42;100928.28;;;16.40;61.19
54248;BME280;40161;39.768;2.722;2023-04-15T00:28:08;100915.63;;;16.38;62.03
54248;BME280;40161;39.768;2.722;2023-04-15T00:30:34;100922.34;;;16.48;62.80
54248;BME280;40161;39.768;2.722;2023-04-15T00:33:00;100933.41;;;16.52;62.69
54248;BME280;40161;39.768;2.722;2023-04-15T00:35:29;100938.09;;;16.58;62.31
54248;BME280;40161;39.768;2.722;2023-04-15T00:37:57;100951.56;;;16.60;62.99
54248;BME280;40161;39.768;2.722;2023-04-15T00:40:23;100944.06;;;16.50;64.38
54248;BME280;40161;39.768;2.722;2023-04-15T00:42:49;100944.50;;;16.48;63.96
54248;BME280;40161;39.768;2.722;2023-04-15T00:45:14;100948.81;;;16.53;63.87
54248;BME280;40161;39.768;2.722;2023-04-15T00:47:42;100933.41;;;16.45;64.13
54248;BME280;40161;39.768;2.722;2023-04-15T00:50:08;100931.47;;;16.34;64.83
54248;BME280;40161;39.768;2.722;2023-04-15T00:52:33;100937.84;;;16.24;65.43
54248;BME280;40161;39.768;2.722;2023-04-15T00:54:59;100939.41;;;16.22;65.66
54248;BME280;40161;39.768;2.722;2023-04-15T00:57:25;100929.16;;;16.11;66.24
54248;BME280;40161;39.768;2.722;2023-04-15T00:59:52;100908.19;;;16.03;66.07
54248;BME280;40161;39.768;2.722;2023-04-15T01:02:19;100895.56;;;15.95;66.74
54248;BME280;40161;39.768;2.722;2023-04-15T01:04:45;100894.00;;;15.90;66.85
54248;BME280;40161;39.768;2.722;2023-04-15T01:07:11;100888.91;;;15.68;67.85
54248;BME280;40161;39.768;2.722;2023-04-15T01:09:36;100909.44;;;15.88;67.76
54248;BME280;40161;39.768;2.722;2023-04-15T01:12:03;100890.06;;;15.77;67.86
54248;BME280;40161;39.768;2.722;2023-04-15T01:14:29;100918.91;;;15.94;68.06
54248;BME280;40161;39.768;2.722;2023-04-15T01:16:54;100918.50;;;15.96;68.82
54248;BME280;40161;39.768;2.722;2023-04-15T01:19:20;100894.84;;;15.66;68.18
54248;BME280;40161;39.768;2.722;2023-04-15T01:21:46;100902.31;;;15.44;69.56
54248;BME280;40161;39.768;2.722;2023-04-15T01:24:12;100906.66;;;15.56;69.04
54248;BME280;40161;39.768;2.722;2023-04-15T01:26:40;100925.66;;;15.68;68.80
54248;BME280;40161;39.768;2.722;2023-04-15T01:29:06;100909.44;;;15.66;68.59
54248;BME280;40161;39.768;2.722;2023-04-15T01:31:32;100919.69;;;15.52;69.51
54248;BME280;40161;39.768;2.722;2023-04-15T01:33:59;100934.69;;;15.54;69.58
54248;BME280;40161;39.768;2.722;2023-04-15T01:36:25;100917.72;;;15.45;70.53
54248;BME280;40161;39.768;2.722;2023-04-15T01:38:51;100936.69;;;15.61;70.78
54248;BME280;40161;39.768;2.722;2023-04-15T01:41:21;100894.78;;;15.34;69.76
54248;BME280;40161;39.768;2.722;2023-04-15T01:43:49;100946.19;;;15.56;70.57
54248;BME280;40161;39.768;2.722;2023-04-15T01:46:15;100936.69;;;15.54;69.88
54248;BME280;40161;39.768;2.722;2023-04-15T01:48:41;100937.13;;;15.66;69.96
54248;BME280;40161;39.768;2.722;2023-04-15T01:51:06;100904.28;;;15.61;69.24
54248;BME280;40161;39.768;2.722;2023-04-15T01:53:32;100905.47;;;15.60;69.42
54248;BME280;40161;39.768;2.722;2023-04-15T01:55:58;100922.50;;;15.73;69.03
54248;BME280;40161;39.768;2.722;2023-04-15T01:58:24;100916.94;;;15.62;69.58
54248;BME280;40161;39.768;2.722;2023-04-15T02:00:49;100924.03;;;15.60;70.83
54248;BME280;40161;39.768;2.722;2023-04-15T02:03:15;100941.03;;;15.44;71.64
54248;BME280;40161;39.768;2.722;2023-04-15T02:05:41;100927.97;;;15.34;71.82
54248;BME280;40161;39.768;2.722;2023-04-15T02:08:06;100959.59;;;15.61;71.62
54248;BME280;40161;39.768;2.722;2023-04-15T02:10:32;100934.28;;;15.31;72.22
54248;BME280;40161;39.768;2.722;2023-04-15T02:12:58;100963.56;;;15.53;72.09
54248;BME280;40161;39.768;2.722;2023-04-15T02:15:23;100948.53;;;15.47;70.84
54248;BME280;40161;39.768;2.722;2023-04-15T02:17:49;100944.19;;;15.50;69.25
54248;BME280;40161;39.768;2.722;2023-04-15T02:20:18;100962.00;;;15.66;62.33
54248;BME280;40161;39.768;2.722;2023-04-15T02:22:43;100969.09;;;16.00;58.92
54248;BME280;40161;39.768;2.722;2023-04-15T02:25:09;100961.63;;;16.00;56.41
54248;BME280;40161;39.768;2.722;2023-04-15T02:27:36;100980.94;;;16.25;55.80
54248;BME280;40161;39.768;2.722;2023-04-15T02:30:02;100973.78;;;16.38;54.24
54248;BME280;40161;39.768;2.722;2023-04-15T02:32:27;100968.28;;;16.35;54.13
54248;BME280;40161;39.768;2.722;2023-04-15T02:34:53;100975.78;;;16.42;54.18
54248;BME280;40161;39.768;2.722;2023-04-15T02:37:19;100975.78;;;16.42;51.82
54248;BME280;40161;39.768;2.722;2023-04-15T02:39:45;100972.16;;;16.55;50.40
54248;BME280;40161;39.768;2.722;2023-04-15T02:42:10;100980.84;;;16.57;51.23
54248;BME280;40161;39.768;2.722;2023-04-15T02:44:37;100997.88;;;16.59;50.69
54248;BME280;40161;39.768;2.722;2023-04-15T02:47:03;100976.16;;;16.44;52.52
54248;BME280;40161;39.768;2.722;2023-04-15T02:49:30;100975.41;;;16.29;53.04
54248;BME280;40161;39.768;2.722;2023-04-15T02:51:56;101008.19;;;16.48;53.66
54248;BME280;40161;39.768;2.722;2023-04-15T02:54:23;101015.31;;;16.46;54.43
54248;BME280;40161;39.768;2.722;2023-04-15T02:56:48;101036.69;;;16.52;54.74
54248;BME280;40161;39.768;2.722;2023-04-15T02:59:15;101036.28;;;16.54;55.32
54248;BME280;40161;39.768;2.722;2023-04-15T03:01:40;101013.34;;;16.39;55.45
54248;BME280;40161;39.768;2.722;2023-04-15T03:04:06;100999.53;;;16.32;56.39
54248;BME280;40161;39.768;2.722;2023-04-15T03:06:35;101027.56;;;16.45;56.87
54248;BME280;40161;39.768;2.722;2023-04-15T03:09:00;101009.38;;;16.40;56.84
54248;BME280;40161;39.768;2.722;2023-04-15T03:11:31;100985.69;;;16.25;56.81
54248;BME280;40161;39.768;2.722;2023-04-15T03:13:57;101007.81;;;16.43;57.83
54248;BME280;40161;39.768;2.722;2023-04-15T03:16:23;100978.19;;;16.14;57.78
54248;BME280;40161;39.768;2.722;2023-04-15T03:18:49;101007.81;;;16.35;57.32
54248;BME280;40161;39.768;2.722;2023-04-15T03:21:15;100953.69;;;16.02;57.97
54248;BME280;40161;39.768;2.722;2023-04-15T03:23:40;100963.97;;;16.09;57.97
54248;BME280;40161;39.768;2.722;2023-04-15T03:26:06;100985.69;;;16.21;57.28
54248;BME280;40161;39.768;2.722;2023-04-15T03:28:31;100981.72;;;16.26;56.50
54248;BME280;40161;39.768;2.722;2023-04-15T03:30:57;100975.78;;;16.20;56.65
54248;BME280;40161;39.768;2.722;2023-04-15T03:33:23;100978.97;;;16.26;57.16
54248;BME280;40161;39.768;2.722;2023-04-15T03:35:49;100934.34;;;15.88;57.57
54248;BME280;40161;39.768;2.722;2023-04-15T03:38:15;100954.47;;;15.99;57.23
54248;BME280;40161;39.768;2.722;2023-04-15T03:40:41;100975.44;;;16.07;57.45
54248;BME280;40161;39.768;2.722;2023-04-15T03:43:07;100990.44;;;16.21;57.29
54248;BME280;40161;39.768;2.722;2023-04-15T03:45:32;100969.91;;;16.04;57.12
54248;BME280;40161;39.768;2.722;2023-04-15T03:47:58;100980.19;;;16.10;57.76
54248;BME280;40161;39.768;2.722;2023-04-15T03:50:23;100992.03;;;16.14;57.42
54248;BME280;40161;39.768;2.722;2023-04-15T03:52:49;100968.72;;;16.05;57.70
54248;BME280;40161;39.768;2.722;2023-04-15T03:55:15;100998.34;;;16.22;57.88
54248;BME280;40161;39.768;2.722;2023-04-15T03:57:40;100987.28;;;16.11;57.66
54248;BME280;40161;39.768;2.722;2023-04-15T04:00:07;100995.59;;;16.15;58.06
54248;BME280;40161;39.768;2.722;2023-04-15T04:02:36;101006.66;;;16.15;57.77
54248;BME280;40161;39.768;2.722;2023-04-15T04:05:01;100997.97;;;15.88;58.69
54248;BME280;40161;39.768;2.722;2023-04-15T04:07:27;100994.00;;;15.96;57.44
54248;BME280;40161;39.768;2.722;2023-04-15T04:09:53;100965.97;;;15.76;57.84
54248;BME280;40161;39.768;2.722;2023-04-15T04:12:18;101015.00;;;15.97;58.46
54248;BME280;40161;39.768;2.722;2023-04-15T04:14:44;101011.44;;;16.04;58.09
54248;BME280;40161;39.768;2.722;2023-04-15T04:17:09;100986.13;;;15.73;59.36
54248;BME280;40161;39.768;2.722;2023-04-15T04:19:35;100996.78;;;15.89;59.00
54248;BME280;40161;39.768;2.722;2023-04-15T04:22:01;100954.09;;;15.69;58.76
54248;BME280;40161;39.768;2.722;2023-04-15T04:24:26;100998.38;;;15.97;58.26
54248;BME280;40161;39.768;2.722;2023-04-15T04:26:52;100991.25;;;15.82;59.59
54248;BME280;40161;39.768;2.722;2023-04-15T04:29:17;100990.47;;;15.78;59.90
54248;BME280;40161;39.768;2.722;2023-04-15T04:31:43;100967.13;;;15.61;59.80
54248;BME280;40161;39.768;2.722;2023-04-15T04:34:09;100992.78;;;15.54;60.34
54248;BME280;40161;39.768;2.722;2023-04-15T04:36:34;101028.38;;;15.63;61.03
54248;BME280;40161;39.768;2.722;2023-04-15T04:39:00;101007.81;;;15.42;61.30
54248;BME280;40161;39.768;2.722;2023-04-15T04:41:26;101046.13;;;15.51;61.51
54248;BME280;40161;39.768;2.722;2023-04-15T04:43:51;101028.63;;;15.08;62.32
54248;BME280;40161;39.768;2.722;2023-04-15T04:46:17;101052.34;;;15.16;62.94
54248;BME280;40161;39.768;2.722;2023-04-15T04:48:42;101057.44;;;15.10;63.88
54248;BME280;40161;39.768;2.722;2023-04-15T04:51:08;101053.91;;;15.17;63.88
54248;BME280;40161;39.768;2.722;2023-04-15T04:53:34;101015.63;;;15.15;62.81
54248;BME280;40161;39.768;2.722;2023-04-15T04:56:01;101061.13;;;15.47;62.58
54248;BME280;40161;39.768;2.722;2023-04-15T04:58:27;101010.50;;;15.17;63.11
54248;BME280;40161;39.768;2.722;2023-04-15T05:00:52;101032.66;;;15.32;63.45
54248;BME280;40161;39.768;2.722;2023-04-15T05:03:18;101040.56;;;15.40;63.84
54248;BME280;40161;39.768;2.722;2023-04-15T05:05:43;101041.00;;;15.46;63.00
54248;BME280;40161;39.768;2.722;2023-04-15T05:08:09;101025.97;;;15.43;63.38
54248;BME280;40161;39.768;2.722;2023-04-15T05:10:35;101031.44;;;15.26;63.30
54248;BME280;40161;39.768;2.722;2023-04-15T05:13:00;101040.97;;;15.32;63.09
54248;BME280;40161;39.768;2.722;2023-04-15T05:15:26;101016.44;;;15.27;63.04
54248;BME280;40161;39.768;2.722;2023-04-15T05:17:52;101044.88;;;15.24;63.59
54248;BME280;40161;39.768;2.722;2023-04-15T05:20:17;101064.19;;;15.20;63.92
54248;BME280;40161;39.768;2.722;2023-04-15T05:22:43;101060.22;;;15.10;64.13
54248;BME280;40161;39.768;2.722;2023-04-15T05:25:08;101071.69;;;15.12;63.46
54248;BME280;40161;39.768;2.722;2023-04-15T05:27:34;101072.00;;;14.96;64.65
54248;BME280;40161;39.768;2.722;2023-04-15T05:30:00;101069.63;;;14.91;64.33
54248;BME280;40161;39.768;2.722;2023-04-15T05:32:26;101101.66;;;15.10;64.04
54248;BME280;40161;39.768;2.722;2023-04-15T05:34:51;101073.69;;;15.15;64.24
54248;BME280;40161;39.768;2.722;2023-04-15T05:37:17;101086.75;;;15.26;62.94
54248;BME280;40161;39.768;2.722;2023-04-15T05:39:45;101070.97;;;15.30;63.27
54248;BME280;40161;39.768;2.722;2023-04-15T05:42:11;101071.38;;;15.28;63.83
54248;BME280;40161;39.768;2.722;2023-04-15T05:44:36;101062.63;;;15.19;64.17
54248;BME280;40161;39.768;2.722;2023-04-15T05:47:02;101054.31;;;15.15;64.02
54248;BME280;40161;39.768;2.722;2023-04-15T05:49:28;101071.72;;;15.19;63.27
54248;BME280;40161;39.768;2.722;2023-04-15T05:51:53;101061.81;;;15.08;63.28
54248;BME280;40161;39.768;2.722;2023-04-15T05:54:19;101068.13;;;15.12;63.15
54248;BME280;40161;39.768;2.722;2023-04-15T05:56:46;101090.63;;;15.14;64.78
54248;BME280;40161;39.768;2.722;2023-04-15T05:59:11;101085.41;;;14.91;64.35
54248;BME280;40161;39.768;2.722;2023-04-15T06:01:37;101084.94;;;14.82;65.02
54248;BME280;40161;39.768;2.722;2023-04-15T06:04:03;101104.78;;;14.98;64.36
54248;BME280;40161;39.768;2.722;2023-04-15T06:06:28;101128.97;;;15.15;64.47
54248;BME280;40161;39.768;2.722;2023-04-15T06:08:54;101107.59;;;15.09;64.52
54248;BME280;40161;39.768;2.722;2023-04-15T06:11:20;101099.31;;;15.09;64.12
54248;BME280;40161;39.768;2.722;2023-04-15T06:13:46;101115.13;;;15.15;64.34
54248;BME280;40161;39.768;2.722;2023-04-15T06:16:11;101107.22;;;15.14;64.74
54248;BME280;40161;39.768;2.722;2023-04-15T06:18:37;101104.78;;;14.98;65.08
54248;BME280;40161;39.768;2.722;2023-04-15T06:21:03;101082.97;;;14.79;65.87
54248;BME280;40161;39.768;2.722;2023-04-15T06:23:30;101097.16;;;14.77;65.68
54248;BME280;40161;39.768;2.722;2023-04-15T06:25:56;101120.94;;;14.92;65.40
54248;BME280;40161;39.768;2.722;2023-04-15T06:28:21;101146.69;;;15.07;65.56
54248;BME280;40161;39.768;2.722;2023-04-15T06:30:48;101135.25;;;15.09;65.18
54248;BME280;40161;39.768;2.722;2023-04-15T06:33:14;101120.59;;;14.98;64.87
54248;BME280;40161;39.768;2.722;2023-04-15T06:35:40;101147.50;;;15.11;65.40
54248;BME280;40161;39.768;2.722;2023-04-15T06:38:05;101087.84;;;14.48;67.41
54248;BME280;40161;39.768;2.722;2023-04-15T06:40:31;101144.50;;;14.76;67.81
54248;BME280;40161;39.768;2.722;2023-04-15T06:42:56;101141.41;;;14.84;68.42
54248;BME280;40161;39.768;2.722;2023-04-15T06:45:22;101136.66;;;14.81;68.20
54248;BME280;40161;39.768;2.722;2023-04-15T06:47:47;101140.22;;;14.82;68.15
54248;BME280;40161;39.768;2.722;2023-04-15T06:50:13;101167.16;;;14.99;68.51
54248;BME280;40161;39.768;2.722;2023-04-15T06:52:39;101169.91;;;14.95;67.78
54248;BME280;40161;39.768;2.722;2023-04-15T06:55:05;101163.63;;;15.02;66.63
54248;BME280;40161;39.768;2.722;2023-04-15T06:57:31;101175.09;;;15.01;67.57
54248;BME280;40161;39.768;2.722;2023-04-15T06:59:56;101169.56;;;15.01;65.33
54248;BME280;40161;39.768;2.722;2023-04-15T07:02:22;101183.88;;;15.20;65.67
54248;BME280;40161;39.768;2.722;2023-04-15T07:04:48;101169.25;;;15.16;65.37
54248;BME280;40161;39.768;2.722;2023-04-15T07:07:13;101178.03;;;15.33;65.14
54248;BME280;40161;39.768;2.722;2023-04-15T07:09:39;101179.25;;;15.39;64.29
54248;BME280;40161;39.768;2.722;2023-04-15T07:12:05;101178.06;;;15.40;62.74
54248;BME280;40161;39.768;2.722;2023-04-15T07:14:30;101176.91;;;15.48;60.39
54248;BME280;40161;39.768;2.722;2023-04-15T07:16:56;101163.03;;;15.41;60.19
54248;BME280;40161;39.768;2.722;2023-04-15T07:19:21;101172.59;;;15.54;58.97
54248;BME280;40161;39.768;2.722;2023-04-15T07:21:48;101193.22;;;15.71;58.63
54248;BME280;40161;39.768;2.722;2023-04-15T07:24:14;101194.44;;;15.74;57.36
54248;BME280;40161;39.768;2.722;2023-04-15T07:26:43;101207.06;;;15.75;56.62
54248;BME280;40161;39.768;2.722;2023-04-15T07:29:08;101188.47;;;15.72;56.56
54248;BME280;40161;39.768;2.722;2023-04-15T07:31:34;101178.59;;;15.67;56.46
54248;BME280;40161;39.768;2.722;2023-04-15T07:34:01;101226.91;;;15.95;56.42
54248;BME280;40161;39.768;2.722;2023-04-15T07:36:27;101236.03;;;15.99;56.14
54248;BME280;40161;39.768;2.722;2023-04-15T07:38:54;101224.56;;;15.97;55.44
54248;BME280;40161;39.768;2.722;2023-04-15T07:41:20;101238.81;;;16.09;54.81
54248;BME280;40161;39.768;2.722;2023-04-15T07:43:46;101209.09;;;15.88;54.29
54248;BME280;40161;39.768;2.722;2023-04-15T07:46:13;101215.44;;;15.93;54.48
54248;BME280;40161;39.768;2.722;2023-04-15T07:48:38;101227.72;;;15.99;54.93
54248;BME280;40161;39.768;2.722;2023-04-15T07:51:04;101209.91;;;16.00;54.39
54248;BME280;40161;39.768;2.722;2023-04-15T07:53:30;101248.75;;;16.18;54.69
54248;BME280;40161;39.768;2.722;2023-04-15T07:55:57;101231.31;;;16.13;54.30
54248;BME280;40161;39.768;2.722;2023-04-15T07:58:23;101256.28;;;16.28;54.19
54248;BME280;40161;39.768;2.722;2023-04-15T08:00:48;101255.47;;;16.27;54.25
54248;BME280;40161;39.768;2.722;2023-04-15T08:03:14;101276.84;;;16.30;54.11
54248;BME280;40161;39.768;2.722;2023-04-15T08:05:40;101279.63;;;16.30;54.11
54248;BME280;40161;39.768;2.722;2023-04-15T08:08:06;101263.41;;;16.32;54.26
54248;BME280;40161;39.768;2.722;2023-04-15T08:10:32;101285.56;;;16.36;54.21
54248;BME280;40161;39.768;2.722;2023-04-15T08:12:58;101282.00;;;16.25;54.13
54248;BME280;40161;39.768;2.722;2023-04-15T08:15:24;101288.75;;;16.38;54.70
54248;BME280;40161;39.768;2.722;2023-04-15T08:17:50;101255.41;;;16.06;54.88
54248;BME280;40161;39.768;2.722;2023-04-15T08:20:18;101301.84;;;16.48;55.19
54248;BME280;40161;39.768;2.722;2023-04-15T08:22:44;101304.22;;;16.57;54.91
54248;BME280;40161;39.768;2.722;2023-04-15T08:25:12;101272.16;;;16.45;54.90
54248;BME280;40161;39.768;2.722;2023-04-15T08:27:37;101261.88;;;16.49;54.46
54248;BME280;40161;39.768;2.722;2023-04-15T08:30:03;101286.41;;;16.65;54.07
54248;BME280;40161;39.768;2.722;2023-04-15T08:32:29;101273.75;;;16.57;53.92
54248;BME280;40161;39.768;2.722;2023-04-15T08:34:54;101318.09;;;16.71;54.44
54248;BME280;40161;39.768;2.722;2023-04-15T08:37:20;101324.47;;;16.75;54.29
54248;BME280;40161;39.768;2.722;2023-04-15T08:39:45;101308.19;;;16.63;54.20
54248;BME280;40161;39.768;2.722;2023-04-15T08:42:15;101318.13;;;16.75;54.92
54248;BME280;40161;39.768;2.722;2023-04-15T08:44:42;101307.44;;;16.80;55.12
54248;BME280;40161;39.768;2.722;2023-04-15T08:47:11;101301.91;;;16.88;54.41
54248;BME280;40161;39.768;2.722;2023-04-15T08:49:39;101290.03;;;16.87;54.24
54248;BME280;40161;39.768;2.722;2023-04-15T08:52:05;101278.94;;;16.76;54.14
54248;BME280;40161;39.768;2.722;2023-04-15T08:54:32;101309.81;;;16.93;54.59
54248;BME280;40161;39.768;2.722;2023-04-15T08:56:58;101290.03;;;16.80;54.53
54248;BME280;40161;39.768;2.722;2023-04-15T08:59:23;101328.84;;;17.01;54.00
54248;BME280;40161;39.768;2.722;2023-04-15T09:01:49;101333.97;;;16.89;54.07
54248;BME280;40161;39.768;2.722;2023-04-15T09:04:16;101336.75;;;17.03;54.81
54248;BME280;40161;39.768;2.722;2023-04-15T09:06:41;101309.44;;;17.01;53.85
54248;BME280;40161;39.768;2.722;2023-04-15T09:09:07;101299.94;;;16.99;53.96
54248;BME280;40161;39.768;2.722;2023-04-15T09:11:33;101305.47;;;17.06;54.53
54248;BME280;40161;39.768;2.722;2023-04-15T09:13:59;101315.38;;;17.14;54.03
54248;BME280;40161;39.768;2.722;2023-04-15T09:16:24;101322.50;;;17.19;53.69
54248;BME280;40161;39.768;2.722;2023-04-15T09:18:50;101284.91;;;17.00;53.18
54248;BME280;40161;39.768;2.722;2023-04-15T09:21:16;101310.63;;;17.22;53.90
54248;BME280;40161;39.768;2.722;2023-04-15T09:24:08;101299.53;;;17.29;53.05
54248;BME280;40161;39.768;2.722;2023-04-15T09:26:36;101297.53;;;17.33;52.88
54248;BME280;40161;39.768;2.722;2023-04-15T09:29:09;101219.94;;;16.87;52.29
54248;BME280;40161;39.768;2.722;2023-04-15T09:31:38;101270.59;;;17.26;52.85
54248;BME280;40161;39.768;2.722;2023-04-15T09:34:05;101282.47;;;17.41;52.16
54248;BME280;40161;39.768;2.722;2023-04-15T09:36:55;101295.94;;;17.46;53.26
54248;BME280;40161;39.768;2.722;2023-04-15T09:39:21;101301.06;;;17.48;51.39
54248;BME280;40161;39.768;2.722;2023-04-15T09:42:03;101293.94;;;17.47;51.64
54248;BME280;40161;39.768;2.722;2023-04-15T09:44:29;101290.41;;;17.39;51.62
54248;BME280;40161;39.768;2.722;2023-04-15T09:46:55;101272.53;;;17.44;51.77
54248;BME280;40161;39.768;2.722;2023-04-15T09:49:21;101281.66;;;17.59;51.52
54248;BME280;40161;39.768;2.722;2023-04-15T09:51:47;101263.38;;;17.58;51.09
54248;BME280;40161;39.768;2.722;2023-04-15T09:54:18;101264.97;;;17.62;51.50
54248;BME280;40161;39.768;2.722;2023-04-15T09:56:45;101274.44;;;17.72;51.63
54248;BME280;40161;39.768;2.722;2023-04-15T09:59:10;101275.63;;;17.74;50.75
54248;BME280;40161;39.768;2.722;2023-04-15T10:01:37;101268.88;;;17.75;50.15
54248;BME280;40161;39.768;2.722;2023-04-15T10:04:05;101264.59;;;17.49;50.18
54248;BME280;40161;39.768;2.722;2023-04-15T10:06:32;101274.91;;;17.52;50.35
54248;BME280;40161;39.768;2.722;2023-04-15T10:08:59;101263.41;;;17.50;50.08
54248;BME280;40161;39.768;2.722;2023-04-15T10:11:29;101251.13;;;17.59;50.58
54248;BME280;40161;39.768;2.722;2023-04-15T10:13:55;101253.81;;;17.84;49.86
54248;BME280;40161;39.768;2.722;2023-04-15T10:16:27;101271.22;;;17.95;49.68
54248;BME280;40161;39.768;2.722;2023-04-15T10:18:54;101268.81;;;18.00;49.22
54248;BME280;40161;39.768;2.722;2023-04-15T10:21:21;101244.59;;;18.05;48.58
54248;BME280;40161;39.768;2.722;2023-04-15T10:23:48;101262.41;;;18.14;49.01
54248;BME280;40161;39.768;2.722;2023-04-15T10:26:14;101254.06;;;18.14;49.38
54248;BME280;40161;39.768;2.722;2023-04-15T10:28:42;101243.28;;;18.23;48.50
54248;BME280;40161;39.768;2.722;2023-04-15T10:31:08;101236.50;;;18.32;48.24
54248;BME280;40161;39.768;2.722;2023-04-15T10:33:37;101209.19;;;18.19;47.99
54248;BME280;40161;39.768;2.722;2023-04-15T10:36:04;101227.38;;;18.31;47.06
54248;BME280;40161;39.768;2.722;2023-04-15T10:44:02;101232.44;;;18.43;46.03
54248;BME280;40161;39.768;2.722;2023-04-15T10:46:39;101248.25;;;18.54;46.21
54248;BME280;40161;39.768;2.722;2023-04-15T10:49:16;101245.94;;;18.48;45.80
54248;BME280;40161;39.768;2.722;2023-04-15T10:51:44;101243.00;;;18.66;46.16
54248;BME280;40161;39.768;2.722;2023-04-15T10:59:35;101205.06;;;18.45;45.42
54248;BME280;40161;39.768;2.722;2023-04-15T11:02:03;101219.56;;;18.67;45.48
54248;BME280;40161;39.768;2.722;2023-04-15T11:04:51;101210.84;;;18.72;45.61
54248;BME280;40161;39.768;2.722;2023-04-15T11:12:39;101202.69;;;18.92;45.00
54248;BME280;40161;39.768;2.722;2023-04-15T11:15:28;101196.69;;;18.97;44.25
54248;BME280;40161;39.768;2.722;2023-04-15T11:17:58;101162.69;;;18.83;44.31
54248;BME280;40161;39.768;2.722;2023-04-15T11:20:24;101199.09;;;18.95;43.40
54248;BME280;40161;39.768;2.722;2023-04-15T11:22:51;101198.56;;;19.08;44.55
54248;BME280;40161;39.768;2.722;2023-04-15T11:25:29;101197.28;;;19.16;44.05
54248;BME280;40161;39.768;2.722;2023-04-15T11:27:55;101186.84;;;19.27;43.82
54248;BME280;40161;39.768;2.722;2023-04-15T11:30:23;101191.31;;;19.17;42.96
54248;BME280;40161;39.768;2.722;2023-04-15T11:32:51;101188.50;;;19.21;44.05
54248;BME280;40161;39.768;2.722;2023-04-15T11:35:17;101182.84;;;19.28;43.77
54248;BME280;40161;39.768;2.722;2023-04-15T11:37:44;101165.66;;;19.37;44.44
54248;BME280;40161;39.768;2.722;2023-04-15T11:40:10;101158.91;;;19.38;44.06
54248;BME280;40161;39.768;2.722;2023-04-15T11:42:36;101156.91;;;19.38;44.51
54248;BME280;40161;39.768;2.722;2023-04-15T11:45:13;101176.69;;;19.44;43.75
54248;BME280;40161;39.768;2.722;2023-04-15T11:47:41;101173.56;;;19.42;43.84
54248;BME280;40161;39.768;2.722;2023-04-15T11:50:21;101177.91;;;19.43;43.01
54248;BME280;40161;39.768;2.722;2023-04-15T11:52:54;101153.03;;;19.29;44.36
54248;BME280;40161;39.768;2.722;2023-04-15T11:55:19;101160.84;;;19.41;43.53
54248;BME280;40161;39.768;2.722;2023-04-15T11:57:45;101170.19;;;19.54;42.88
54248;BME280;40161;39.768;2.722;2023-04-15T12:00:11;101161.50;;;19.52;43.18
54248;BME280;40161;39.768;2.722;2023-04-15T12:02:37;101138.53;;;19.44;43.08
54248;BME280;40161;39.768;2.722;2023-04-15T12:05:04;101141.50;;;19.61;43.08
54248;BME280;40161;39.768;2.722;2023-04-15T12:07:29;101155.28;;;19.72;42.10
54248;BME280;40161;39.768;2.722;2023-04-15T12:09:56;101134.34;;;19.60;43.17
54248;BME280;40161;39.768;2.722;2023-04-15T12:12:25;101152.78;;;19.81;42.42
54248;BME280;40161;39.768;2.722;2023-04-15T12:14:51;101150.22;;;19.94;42.26
54248;BME280;40161;39.768;2.722;2023-04-15T12:17:17;101117.91;;;19.73;42.52
54248;BME280;40161;39.768;2.722;2023-04-15T12:19:42;101155.38;;;19.95;42.65
54248;BME280;40161;39.768;2.722;2023-04-15T12:22:15;101154.19;;;19.96;42.30
54248;BME280;40161;39.768;2.722;2023-04-15T12:24:42;101143.50;;;19.91;41.96
54248;BME280;40161;39.768;2.722;2023-04-15T12:27:12;101141.09;;;19.93;42.05
54248;BME280;40161;39.768;2.722;2023-04-15T12:29:40;101137.94;;;19.91;42.87
54248;BME280;40161;39.768;2.722;2023-04-15T12:32:08;101159.75;;;19.96;42.09
54248;BME280;40161;39.768;2.722;2023-04-15T12:34:36;101136.50;;;19.79;41.96
54248;BME280;40161;39.768;2.722;2023-04-15T12:37:03;101151.16;;;19.83;42.42
54248;BME280;40161;39.768;2.722;2023-04-15T12:39:31;101150.53;;;19.99;41.72
54248;BME280;40161;39.768;2.722;2023-04-15T12:41:57;101149.34;;;20.00;42.01
54248;BME280;40161;39.768;2.722;2023-04-15T12:44:24;101170.22;;;19.85;41.59
54248;BME280;40161;39.768;2.722;2023-04-15T12:46:50;101156.50;;;19.71;41.91
54248;BME280;40161;39.768;2.722;2023-04-15T12:49:18;101154.34;;;19.82;42.44
54248;BME280;40161;39.768;2.722;2023-04-15T12:51:48;101152.09;;;19.73;41.75
54248;BME280;40161;39.768;2.722;2023-04-15T12:54:15;101140.13;;;19.76;41.75
54248;BME280;40161;39.768;2.722;2023-04-15T12:56:41;101134.09;;;19.81;42.75
54248;BME280;40161;39.768;2.722;2023-04-15T12:59:06;101135.13;;;19.91;41.73
54248;BME280;40161;39.768;2.722;2023-04-15T13:01:32;101082.00;;;19.78;41.94
54248;BME280;40161;39.768;2.722;2023-04-15T13:03:58;101103.72;;;19.90;41.10